Time;durP1;ratioP1;P1;durP2;ratioP2;P2;SDS_P1;SDS_P2;PMS_P1;PMS_P2;Temp;Humidity;BMP_temperature;BMP_pressure;BME280_temperature;BME280_humidity;BME280_pressure;Samples;Min_cycle;Max_cycle;Signal;HPM_P1;HPM_P2
2021/03/18 00:00:23;;;;;;;21.02;11.93;;;;;;;-0.51;100.00;96544.59;1036343;28;20056;-56
2021/03/18 00:00:54;;;;;;;19.80;11.73;;;;;;;-0.62;100.00;96530.41;1032256;28;20010;-55
2021/03/18 00:01:25;;;;;;;25.27;11.52;;;;;;;-0.49;100.00;96553.16;1020230;28;20367;-56
2021/03/18 00:01:55;;;;;;;25.38;11.10;;;;;;;-0.47;100.00;96546.91;1024114;29;20022;-56
2021/03/18 00:02:26;;;;;;;20.33;10.98;;;;;;;-0.53;100.00;96538.63;1024331;29;20019;-55
2021/03/18 00:02:57;;;;;;;21.65;11.50;;;;;;;-0.52;100.00;96535.94;1028224;28;20041;-55
2021/03/18 00:03:30;;;;;;;20.60;10.77;;;;;;;-0.50;100.00;96541.88;1036701;28;20018;-55
2021/03/18 00:04:01;;;;;;;18.60;9.77;;;;;;;-0.45;100.00;96542.44;1036070;28;20018;-57
2021/03/18 00:04:32;;;;;;;22.08;10.15;;;;;;;-0.41;100.00;96546.53;1016423;29;20459;-57
2021/03/18 00:05:04;;;;;;;18.35;9.80;;;;;;;-0.38;100.00;96548.13;1028253;28;20014;-56
2021/03/18 00:05:35;;;;;;;19.13;10.55;;;;;;;-0.41;100.00;96545.72;1028132;28;20065;-56
2021/03/18 00:06:06;;;;;;;17.38;10.18;;;;;;;-0.45;100.00;96547.66;1020138;29;20163;-56
2021/03/18 00:06:37;;;;;;;16.90;10.38;;;;;;;-0.59;100.00;96539.84;1028203;28;20018;-56
2021/03/18 00:07:08;;;;;;;15.88;9.65;;;;;;;-0.68;100.00;96549.06;1028049;28;20039;-56
2021/03/18 00:07:39;;;;;;;18.67;10.15;;;;;;;-0.69;100.00;96557.81;1028728;28;20025;-56
2021/03/18 00:08:10;;;;;;;16.15;9.88;;;;;;;-0.63;100.00;96548.75;1024068;28;20496;-56
2021/03/18 00:08:40;;;;;;;17.70;10.40;;;;;;;-0.70;100.00;96535.25;1032263;28;20380;-56
2021/03/18 00:09:13;;;;;;;19.77;9.30;;;;;;;-0.54;100.00;96555.19;1020178;29;20023;-55
2021/03/18 00:09:44;;;;;;;16.52;10.05;;;;;;;-0.51;100.00;96549.81;1028247;28;20019;-56
2021/03/18 00:10:15;;;;;;;19.67;10.88;;;;;;;-0.49;100.00;96553.97;1032057;28;20113;-56
2021/03/18 00:10:47;;;;;;;20.50;10.27;;;;;;;-0.51;100.00;96547.19;1036232;28;20041;-56
2021/03/18 00:11:19;;;;;;;17.17;10.02;;;;;;;-0.46;100.00;96543.38;1024336;28;20084;-56
2021/03/18 00:11:51;;;;;;;19.42;10.32;;;;;;;-0.41;100.00;96554.38;1032138;28;20025;-56
2021/03/18 00:12:22;;;;;;;17.83;10.80;;;;;;;-0.42;100.00;96544.00;1032033;28;20392;-53
2021/03/18 00:12:52;;;;;;;19.73;9.80;;;;;;;-0.42;100.00;96549.22;1024198;28;20023;-55
2021/03/18 00:13:24;;;;;;;21.85;10.65;;;;;;;-0.41;100.00;96545.72;1032198;28;20566;-56
2021/03/18 00:13:55;;;;;;;19.42;10.98;;;;;;;-0.47;100.00;96535.63;1036064;28;20022;-55
2021/03/18 00:14:27;;;;;;;17.77;9.93;;;;;;;-0.44;100.00;96549.31;1024069;29;20020;-56
2021/03/18 00:14:59;;;;;;;18.85;10.45;;;;;;;-0.42;100.00;96547.47;1028122;28;20057;-56
2021/03/18 00:15:30;;;;;;;18.02;10.63;;;;;;;-0.33;100.00;96548.69;1028173;28;20046;-56
2021/03/18 00:16:00;;;;;;;18.33;9.98;;;;;;;-0.31;100.00;96546.81;1020155;29;20028;-56
2021/03/18 00:16:31;;;;;;;18.60;9.65;;;;;;;-0.27;100.00;96555.31;1032087;28;20100;-55
2021/03/18 00:17:02;;;;;;;19.67;10.05;;;;;;;-0.25;100.00;96546.44;1032043;28;20484;-55
2021/03/18 00:17:33;;;;;;;21.60;10.35;;;;;;;-0.24;100.00;96547.28;1020220;28;20030;-55
2021/03/18 00:18:13;;;;;;;19.20;10.13;;;;;;;-0.24;100.00;96548.13;1024227;28;20118;-56
2021/03/18 00:18:53;;;;;;;17.77;9.85;;;;;;;-0.27;100.00;96548.31;1031989;28;20029;-53
2021/03/18 00:19:23;;;;;;;16.55;9.35;;;;;;;-0.31;100.00;96544.22;1020246;28;20015;-55
2021/03/18 00:19:54;;;;;;;20.77;10.40;;;;;;;-0.26;100.00;96539.56;1024207;28;20458;-55
2021/03/18 00:20:25;;;;;;;19.30;10.60;;;;;;;-0.40;100.00;96545.63;1028128;28;20031;-56
2021/03/18 00:20:57;;;;;;;19.95;10.82;;;;;;;-0.45;100.00;96541.63;1028023;28;20023;-56
2021/03/18 00:21:27;;;;;;;18.90;10.45;;;;;;;-0.38;100.00;96541.13;1032080;28;20463;-56
2021/03/18 00:21:58;;;;;;;19.33;10.00;;;;;;;-0.32;100.00;96544.31;1024040;28;20027;-56
2021/03/18 00:22:29;;;;;;;17.70;10.07;;;;;;;-0.28;100.00;96546.63;1032014;28;20030;-55
2021/03/18 00:23:00;;;;;;;18.30;10.70;;;;;;;-0.27;100.00;96548.31;1020013;29;20050;-55
2021/03/18 00:23:31;;;;;;;18.45;10.77;;;;;;;-0.29;100.00;96542.34;1024001;28;20027;-54
2021/03/18 00:24:01;;;;;;;19.02;11.30;;;;;;;-0.50;100.00;96510.59;1028085;28;20037;-55
2021/03/18 00:24:32;;;;;;;17.67;9.70;;;;;;;-0.25;100.00;96550.81;1024022;29;20409;-56
2021/03/18 00:25:05;;;;;;;21.70;10.98;;;;;;;-0.25;100.00;96546.44;1024059;28;20023;-56
2021/03/18 00:25:35;;;;;;;22.02;12.50;;;;;;;-0.25;100.00;96546.44;1024057;29;20031;-53
2021/03/18 00:26:08;;;;;;;20.35;11.15;;;;;;;-0.28;100.00;96543.16;1032084;28;20464;-56
2021/03/18 00:26:38;;;;;;;19.92;11.07;;;;;;;-0.31;100.00;96546.00;1024084;28;20015;-55
2021/03/18 00:27:12;;;;;;;22.42;11.43;;;;;;;-0.32;100.00;96542.53;1031919;28;20026;-56
2021/03/18 00:27:44;;;;;;;20.38;11.15;;;;;;;-0.32;100.00;96544.31;1028055;28;20027;-56
2021/03/18 00:28:15;;;;;;;24.92;11.73;;;;;;;-0.35;100.00;96544.47;1020128;29;20564;-55
2021/03/18 00:28:45;;;;;;;25.30;12.80;;;;;;;-0.41;100.00;96541.31;1020176;29;20051;-56
2021/03/18 00:29:16;;;;;;;23.35;12.45;;;;;;;-0.48;100.00;96545.22;1020718;28;20059;-56
2021/03/18 00:29:47;;;;;;;19.17;11.50;;;;;;;-0.47;100.00;96546.91;1024415;28;20114;-56
2021/03/18 00:30:19;;;;;;;25.98;12.25;;;;;;;-0.45;100.00;96547.66;1024078;28;20512;-55
2021/03/18 00:30:49;;;;;;;24.58;13.18;;;;;;;-0.50;100.00;96551.50;1020055;29;20110;-55
2021/03/18 00:31:22;;;;;;;25.95;13.73;;;;;;;-0.60;100.00;96551.19;1027955;28;20481;-57
2021/03/18 00:31:53;;;;;;;25.10;13.43;;;;;;;-0.62;100.00;96540.84;1028055;28;20506;-55
2021/03/18 00:32:24;;;;;;;27.45;14.45;;;;;;;-0.55;100.00;96543.94;1024025;28;20023;-56
2021/03/18 00:32:55;;;;;;;25.02;14.00;;;;;;;-0.53;100.00;96542.06;1028019;28;20066;-56
2021/03/18 00:33:26;;;;;;;27.77;14.38;;;;;;;-0.62;100.00;96553.88;1036026;28;20139;-55
2021/03/18 00:33:57;;;;;;;26.23;13.98;;;;;;;-0.70;100.00;96544.84;1019909;28;20023;-55
2021/03/18 00:34:28;;;;;;;24.25;14.00;;;;;;;-0.65;100.00;96548.03;1024180;28;20190;-56
2021/03/18 00:34:59;;;;;;;26.85;14.25;;;;;;;-0.61;100.00;96544.28;1028062;28;20030;-57
2021/03/18 00:35:30;;;;;;;23.92;13.23;;;;;;;-0.60;100.00;96546.81;1031935;28;20030;-56
2021/03/18 00:36:01;;;;;;;25.75;14.10;;;;;;;-0.59;100.00;96540.69;1028098;28;20023;-55
2021/03/18 00:36:32;;;;;;;23.40;14.20;;;;;;;-0.61;100.00;96554.72;1024061;28;20054;-56
2021/03/18 00:37:03;;;;;;;25.60;14.63;;;;;;;-0.61;100.00;96542.53;1020016;29;20066;-56
2021/03/18 00:37:36;;;;;;;24.25;14.90;;;;;;;-0.63;100.00;96544.41;1023905;28;20087;-56
2021/03/18 00:38:06;;;;;;;26.05;14.15;;;;;;;-0.59;100.00;96543.28;1024032;28;20516;-56
2021/03/18 00:38:37;;;;;;;25.58;14.80;;;;;;;-0.58;100.00;96542.34;1027982;28;20058;-55
2021/03/18 00:39:09;;;;;;;24.30;15.35;;;;;;;-0.55;100.00;96543.94;1028073;28;20042;-57
2021/03/18 00:39:40;;;;;;;25.77;14.88;;;;;;;-0.56;100.00;96542.25;1031885;28;20153;-56
2021/03/18 00:40:21;;;;;;;25.50;14.32;;;;;;;-0.63;100.00;96543.53;1028062;28;20323;-55
2021/03/18 00:40:55;;;;;;;28.45;15.07;;;;;;;-0.57;100.00;96546.63;1028134;28;20154;-56
2021/03/18 00:41:26;;;;;;;25.40;14.00;;;;;;;-0.60;100.00;96541.59;1027864;28;20556;-55
2021/03/18 00:41:57;;;;;;;27.15;14.40;;;;;;;-0.55;100.00;96543.09;1027911;28;20019;-55
2021/03/18 00:42:27;;;;;;;23.70;14.52;;;;;;;-0.63;100.00;96531.38;1032093;28;20017;-56
2021/03/18 00:43:00;;;;;;;24.02;13.45;;;;;;;-0.54;100.00;96539.53;1027833;28;20110;-56
2021/03/18 00:43:31;;;;;;;25.92;14.48;;;;;;;-0.54;100.00;96539.53;1023940;28;20074;-53
2021/03/18 00:44:11;;;;;;;22.83;13.52;;;;;;;-0.53;100.00;96541.22;1028195;28;20459;-56
2021/03/18 00:44:42;;;;;;;26.08;14.10;;;;;;;-0.57;100.00;96536.19;1035943;28;20013;-56
2021/03/18 00:45:13;;;;;;;22.85;13.25;;;;;;;-0.62;100.00;96546.06;1027937;28;20109;-55
2021/03/18 00:45:45;;;;;;;26.13;13.95;;;;;;;-0.68;100.00;96538.63;1024046;28;20441;-56
2021/03/18 00:46:16;;;;;;;26.45;15.10;;;;;;;-0.74;100.00;96541.59;1031978;28;20057;-55
2021/03/18 00:46:47;;;;;;;26.35;14.65;;;;;;;-0.75;100.00;96542.50;1027857;28;20022;-56
2021/03/18 00:47:18;;;;;;;27.05;14.90;;;;;;;-0.70;100.00;96544.84;1023990;29;20086;-55
2021/03/18 00:47:49;;;;;;;26.60;14.57;;;;;;;-0.72;100.00;96544.09;1027979;28;20551;-55
2021/03/18 00:48:21;;;;;;;28.55;15.18;;;;;;;-0.75;100.00;96545.13;1023980;29;20174;-55
2021/03/18 00:48:52;;;;;;;25.98;14.65;;;;;;;-0.77;100.00;96549.59;1023868;29;20038;-56
2021/03/18 00:49:23;;;;;;;27.65;16.00;;;;;;;-0.74;100.00;96543.38;1027893;28;20034;-56
2021/03/18 00:49:53;;;;;;;25.58;15.00;;;;;;;-0.72;100.00;96546.72;1019993;29;20406;-56
2021/03/18 00:50:28;;;;;;;25.23;14.45;;;;;;;-0.70;100.00;96548.28;1028034;28;20040;-56
2021/03/18 00:51:00;;;;;;;27.65;14.93;;;;;;;-0.79;100.00;96538.41;1027845;28;20031;-55
2021/03/18 00:51:31;;;;;;;27.10;15.95;;;;;;;-0.78;100.00;96545.31;1024007;28;20043;-56
2021/03/18 00:52:02;;;;;;;32.70;14.95;;;;;;;-0.83;100.00;96544.75;1031950;28;20526;-55
2021/03/18 00:52:33;;;;;;;25.15;15.13;;;;;;;-0.81;100.00;96548.09;1031970;28;20046;-56
2021/03/18 00:53:05;;;;;;;23.92;14.68;;;;;;;-0.83;100.00;96540.38;1027818;28;20023;-56
2021/03/18 00:53:39;;;;;;;27.25;15.00;;;;;;;-0.82;100.00;96544.66;1031859;28;20125;-56
2021/03/18 00:54:09;;;;;;;25.38;15.40;;;;;;;-0.85;100.00;96536.19;1028038;28;20027;-56
2021/03/18 00:54:40;;;;;;;28.42;15.20;;;;;;;-0.76;100.00;96540.84;1028008;28;20050;-55
2021/03/18 00:55:12;;;;;;;24.77;14.15;;;;;;;-0.86;100.00;96542.31;1027918;28;20026;-56
2021/03/18 00:55:43;;;;;;;24.73;15.27;;;;;;;-0.86;100.00;96539.72;1023892;28;20130;-56
2021/03/18 00:56:16;;;;;;;26.70;15.55;;;;;;;-0.85;100.00;96541.41;1023978;28;20023;-56
2021/03/18 00:56:47;;;;;;;27.13;15.45;;;;;;;-0.83;100.00;96544.75;1027928;28;20050;-55
2021/03/18 00:57:18;;;;;;;24.10;15.45;;;;;;;-0.81;100.00;96545.50;1015883;29;20079;-57
2021/03/18 00:57:48;;;;;;;29.80;16.00;;;;;;;-0.86;100.00;96542.31;1024006;28;20027;-55
2021/03/18 00:58:20;;;;;;;26.27;15.63;;;;;;;-0.93;100.00;96527.97;1023941;29;20019;-56
2021/03/18 00:58:51;;;;;;;25.75;15.23;;;;;;;-0.83;100.00;96539.53;1027979;28;20086;-55
2021/03/18 00:59:22;;;;;;;27.58;16.42;;;;;;;-0.82;100.00;96546.41;1019843;28;20028;-56
2021/03/18 00:59:52;;;;;;;26.17;14.82;;;;;;;-0.80;100.00;96540.19;1027936;28;20050;-56
2021/03/18 01:00:27;;;;;;;26.15;15.55;;;;;;;-0.76;100.00;96544.28;1028064;28;20142;-55
2021/03/18 01:01:00;;;;;;;28.27;14.45;;;;;;;-0.79;100.00;96541.84;1023908;28;20024;-55
2021/03/18 01:01:30;;;;;;;24.65;13.85;;;;;;;-0.81;100.00;96537.66;1023786;28;20139;-55
2021/03/18 01:02:01;;;;;;;23.35;13.93;;;;;;;-0.78;100.00;96542.72;1031895;28;20579;-54
2021/03/18 01:02:32;;;;;;;27.10;16.02;;;;;;;-0.78;100.00;96542.72;1027874;28;20370;-55
2021/03/18 01:03:04;;;;;;;24.25;14.23;;;;;;;-0.79;100.00;96538.41;1023955;29;20034;-55
2021/03/18 01:03:37;;;;;;;22.92;14.82;;;;;;;-0.82;100.00;96535.97;1019727;28;20023;-56
2021/03/18 01:04:07;;;;;;;26.10;15.13;;;;;;;-0.84;100.00;96537.84;1023927;28;20139;-55
2021/03/18 01:04:38;;;;;;;26.88;15.45;;;;;;;-0.80;100.00;96545.41;1027909;28;20139;-56
2021/03/18 01:05:12;;;;;;;29.00;14.73;;;;;;;-0.79;100.00;96530.59;1035918;28;20458;-55
2021/03/18 01:05:53;;;;;;;24.77;15.45;;;;;;;-0.85;100.00;96538.78;1023872;28;20231;-56
2021/03/18 01:06:26;;;;;;;28.50;15.35;;;;;;;-0.86;100.00;96539.72;1027838;28;20023;-55
2021/03/18 01:06:57;;;;;;;25.25;14.35;;;;;;;-0.87;100.00;96532.81;1031885;28;20022;-55
2021/03/18 01:07:28;;;;;;;25.83;15.40;;;;;;;-0.86;100.00;96537.94;1024037;28;20043;-56
2021/03/18 01:07:59;;;;;;;23.48;14.45;;;;;;;-0.82;100.00;96535.97;1027762;28;20023;-55
2021/03/18 01:08:30;;;;;;;27.00;15.43;;;;;;;-0.83;100.00;96534.31;1032008;28;20029;-55
2021/03/18 01:09:02;;;;;;;28.60;14.68;;;;;;;-0.85;100.00;96533.59;1027870;28;20038;-56
2021/03/18 01:09:33;;;;;;;25.25;14.50;;;;;;;-0.86;100.00;96534.50;1028357;28;20101;-56
2021/03/18 01:10:06;;;;;;;25.80;15.25;;;;;;;-0.86;100.00;96534.50;1027790;28;20023;-58
2021/03/18 01:10:49;;;;;;;27.25;14.63;;;;;;;-0.84;100.00;96543.06;1028164;28;20019;-58
2021/03/18 01:11:22;;;;;;;27.75;14.73;;;;;;;-0.84;100.00;96537.84;1023975;28;20029;-56
2021/03/18 01:11:52;;;;;;;25.48;13.93;;;;;;;-0.86;100.00;96537.09;1023769;28;20118;-56
2021/03/18 01:12:23;;;;;;;24.85;14.23;;;;;;;-0.85;100.00;96533.59;1023883;28;20019;-54
2021/03/18 01:12:54;;;;;;;25.63;13.63;;;;;;;-0.85;100.00;96538.78;1027939;28;20113;-57
2021/03/18 01:13:25;;;;;;;25.13;14.48;;;;;;;-0.85;100.00;96541.41;1035825;28;20072;-56
2021/03/18 01:13:58;;;;;;;24.58;13.68;;;;;;;-0.84;100.00;96538.69;1027517;28;20027;-55
2021/03/18 01:14:29;;;;;;;23.00;13.73;;;;;;;-0.87;100.00;96540.63;1031855;28;20018;-54
2021/03/18 01:14:59;;;;;;;25.73;14.85;;;;;;;-0.88;100.00;96534.59;1035902;28;20026;-56
2021/03/18 01:15:30;;;;;;;27.77;14.18;;;;;;;-0.84;100.00;96537.84;1027889;28;20073;-56
2021/03/18 01:16:04;;;;;;;21.80;12.82;;;;;;;-0.82;100.00;96534.22;1035770;28;20030;-55
2021/03/18 01:16:47;;;;;;;27.45;12.98;;;;;;;-0.82;100.00;96530.78;1031886;28;20030;-56
2021/03/18 01:17:18;;;;;;;23.25;12.40;;;;;;;-0.86;100.00;96531.88;1027798;28;20026;-55
2021/03/18 01:17:48;;;;;;;22.77;12.73;;;;;;;-0.85;100.00;96531.81;1023925;29;20438;-56
2021/03/18 01:18:21;;;;;;;21.23;13.05;;;;;;;-0.83;100.00;96534.31;1023432;28;20031;-55
2021/03/18 01:18:55;;;;;;;25.58;12.43;;;;;;;-0.85;100.00;96529.19;1031859;28;20472;-55
2021/03/18 01:19:26;;;;;;;22.90;12.75;;;;;;;-0.84;100.00;96530.03;1035997;28;20417;-56
2021/03/18 01:19:56;;;;;;;20.70;12.85;;;;;;;-0.86;100.00;96531.88;1031918;28;20029;-56
2021/03/18 01:20:27;;;;;;;22.70;11.82;;;;;;;-0.86;100.00;96531.88;1027778;28;20023;-56
2021/03/18 01:20:58;;;;;;;23.73;12.82;;;;;;;-0.85;100.00;96526.59;1027896;28;20088;-55
2021/03/18 01:21:31;;;;;;;25.65;13.20;;;;;;;-0.83;100.00;96529.09;1031848;28;20511;-56
2021/03/18 01:22:02;;;;;;;27.48;14.25;;;;;;;-0.83;100.00;96519.50;1035888;28;20503;-55
2021/03/18 01:22:33;;;;;;;26.45;13.85;;;;;;;-0.85;100.00;96525.75;1027698;28;20019;-56
2021/03/18 01:23:03;;;;;;;24.98;13.82;;;;;;;-0.90;100.00;96527.81;1031908;28;20022;-55
2021/03/18 01:23:35;;;;;;;22.95;13.15;;;;;;;-0.89;100.00;96521.63;1031761;28;20029;-56
2021/03/18 01:24:06;;;;;;;27.35;14.90;;;;;;;-0.93;100.00;96523.59;1031820;28;20080;-55
2021/03/18 01:24:36;;;;;;;25.77;14.07;;;;;;;-0.93;100.00;96528.81;1027757;28;20031;-56
2021/03/18 01:25:08;;;;;;;23.52;14.30;;;;;;;-0.93;100.00;96523.59;1031943;28;20109;-54
2021/03/18 01:25:39;;;;;;;23.48;13.50;;;;;;;-0.93;100.00;96525.38;1031785;28;20050;-54
2021/03/18 01:26:10;;;;;;;24.20;14.18;;;;;;;-0.93;100.00;96527.97;1036062;28;20018;-56
2021/03/18 01:26:41;;;;;;;24.30;14.07;;;;;;;-1.05;100.00;96526.91;1027710;28;20117;-55
2021/03/18 01:27:12;;;;;;;26.15;13.60;;;;;;;-1.03;100.00;96525.91;1019808;29;20027;-55
2021/03/18 01:27:42;;;;;;;24.38;12.95;;;;;;;-1.00;100.00;96523.09;1031883;28;20480;-56
2021/03/18 01:28:14;;;;;;;28.15;13.60;;;;;;;-1.06;100.00;96526.09;1019990;28;20481;-54
2021/03/18 01:28:45;;;;;;;26.40;13.70;;;;;;;-1.08;100.00;96525.34;1035718;28;20025;-56
2021/03/18 01:29:15;;;;;;;24.77;13.27;;;;;;;-1.11;100.00;96511.66;1019911;29;20059;-56
2021/03/18 01:29:46;;;;;;;26.45;14.20;;;;;;;-1.06;100.00;96527.84;1019937;29;20118;-56
2021/03/18 01:30:19;;;;;;;28.05;14.10;;;;;;;-1.05;100.00;96525.16;1027918;28;20113;-56
2021/03/18 01:30:50;;;;;;;28.55;13.70;;;;;;;-1.03;100.00;96522.44;1027712;28;20089;-56
2021/03/18 01:31:21;;;;;;;24.10;14.10;;;;;;;-0.98;100.00;96529.06;1023805;29;20086;-55
2021/03/18 01:31:52;;;;;;;21.27;12.10;;;;;;;-1.00;100.00;96527.50;1023899;28;20028;-56
2021/03/18 01:32:23;;;;;;;21.55;12.65;;;;;;;-1.05;100.00;96525.16;1023837;29;20102;-57
2021/03/18 01:32:53;;;;;;;23.77;12.35;;;;;;;-0.98;100.00;96523.84;1027702;28;20031;-56
2021/03/18 01:33:24;;;;;;;23.48;12.40;;;;;;;-0.93;100.00;96528.81;1023752;28;20031;-55
2021/03/18 01:33:55;;;;;;;20.58;12.02;;;;;;;-0.92;100.00;96529.63;1027646;28;20031;-57
2021/03/18 01:34:26;;;;;;;20.98;12.35;;;;;;;-0.92;100.00;96519.22;1023794;28;20477;-55
2021/03/18 01:34:56;;;;;;;21.52;11.63;;;;;;;-1.00;100.00;96524.88;1027828;28;20038;-55
2021/03/18 01:35:27;;;;;;;21.73;11.18;;;;;;;-0.99;100.00;96518.75;1031772;28;20108;-56
2021/03/18 01:36:00;;;;;;;20.42;11.43;;;;;;;-0.95;100.00;96525.44;1023832;28;20027;-56
2021/03/18 01:36:31;;;;;;;18.75;10.98;;;;;;;-0.97;100.00;96522.09;1031802;28;20033;-54
2021/03/18 01:37:02;;;;;;;21.45;10.95;;;;;;;-0.97;100.00;96522.09;1031599;28;20026;-55
2021/03/18 01:37:33;;;;;;;17.35;9.90;;;;;;;-0.96;100.00;96522.03;1028323;28;20492;-56
2021/03/18 01:38:04;;;;;;;17.70;10.38;;;;;;;-0.91;100.00;96520.91;1023809;29;20033;-55
2021/03/18 01:38:35;;;;;;;22.65;10.52;;;;;;;-0.95;100.00;96525.44;1031820;28;20034;-56
2021/03/18 01:39:06;;;;;;;21.95;10.63;;;;;;;-0.95;100.00;96523.69;1031613;28;20080;-55
2021/03/18 01:39:37;;;;;;;17.00;9.63;;;;;;;-0.91;100.00;96518.28;1019805;29;20374;-56
2021/03/18 01:40:09;;;;;;;19.50;9.90;;;;;;;-0.86;100.00;96522.28;1027888;28;20019;-55
2021/03/18 01:40:40;;;;;;;22.88;9.57;;;;;;;-0.82;100.00;96520.34;1039897;28;20096;-55
2021/03/18 01:41:12;;;;;;;15.95;9.50;;;;;;;-0.88;100.00;96520.72;1027657;28;20444;-56
2021/03/18 01:41:42;;;;;;;19.65;9.50;;;;;;;-0.86;100.00;96521.47;1031817;28;20026;-56
2021/03/18 01:42:13;;;;;;;16.23;9.43;;;;;;;-0.88;100.00;96520.72;1019795;29;20024;-56
2021/03/18 01:42:44;;;;;;;19.30;10.35;;;;;;;-0.89;100.00;96519.03;1027823;28;20019;-56
2021/03/18 01:43:15;;;;;;;22.13;10.80;;;;;;;-0.86;100.00;96516.25;1019671;29;20488;-56
2021/03/18 01:43:46;;;;;;;18.02;10.63;;;;;;;-0.82;100.00;96515.97;1027579;28;20106;-56
2021/03/18 01:44:16;;;;;;;19.50;8.85;;;;;;;-0.79;100.00;96517.56;1019804;29;20528;-55
2021/03/18 01:44:48;;;;;;;16.13;9.73;;;;;;;-0.77;100.00;96518.28;1023708;28;20026;-56
2021/03/18 01:45:18;;;;;;;17.13;8.95;;;;;;;-0.88;100.00;96516.34;1019738;28;20020;-55
2021/03/18 01:45:49;;;;;;;18.65;9.18;;;;;;;-0.84;100.00;96512.59;1031875;28;20105;-55
2021/03/18 01:46:20;;;;;;;17.85;9.05;;;;;;;-0.83;100.00;96519.50;1027811;28;20026;-56
2021/03/18 01:46:51;;;;;;;19.02;8.88;;;;;;;-0.82;100.00;96520.34;1027710;28;20054;-56
2021/03/18 01:47:22;;;;;;;16.52;9.10;;;;;;;-0.79;100.00;96517.56;1027505;28;20392;-56
2021/03/18 01:47:54;;;;;;;16.20;9.07;;;;;;;-0.80;100.00;96521.09;1027752;28;20027;-55
2021/03/18 01:48:24;;;;;;;16.33;9.23;;;;;;;-0.88;100.00;96518.13;1023740;28;20019;-55
2021/03/18 01:48:55;;;;;;;19.30;9.05;;;;;;;-0.87;100.00;96515.41;1035808;28;20022;-56
2021/03/18 01:49:26;;;;;;;16.60;8.40;;;;;;;-0.88;100.00;96512.91;1031666;28;20051;-56
2021/03/18 01:49:57;;;;;;;19.20;8.40;;;;;;;-0.80;100.00;96515.88;1027716;28;20033;-55
2021/03/18 01:50:29;;;;;;;17.88;8.40;;;;;;;-0.84;100.00;96506.56;1035765;28;20526;-55
2021/03/18 01:51:00;;;;;;;17.13;8.95;;;;;;;-0.83;100.00;96508.25;1027757;28;20033;-57
2021/03/18 01:51:31;;;;;;;15.00;8.05;;;;;;;-0.83;100.00;96511.69;1031535;28;20030;-56
2021/03/18 01:52:02;;;;;;;14.68;8.32;;;;;;;-0.78;100.00;96514.03;1023820;28;20023;-55
2021/03/18 01:52:33;;;;;;;17.95;8.57;;;;;;;-0.80;100.00;96508.03;1019671;29;20166;-56
2021/03/18 01:53:04;;;;;;;16.42;8.82;;;;;;;-0.84;100.00;96509.16;1023734;28;20059;-56
2021/03/18 01:53:35;;;;;;;17.60;9.18;;;;;;;-0.83;100.00;96511.69;1023425;28;20038;-56
2021/03/18 01:54:06;;;;;;;19.20;9.13;;;;;;;-0.82;100.00;96512.50;1031697;28;20021;-56
2021/03/18 01:54:37;;;;;;;18.63;9.27;;;;;;;-0.76;100.00;96509.56;1027660;28;20114;-55
2021/03/18 01:55:09;;;;;;;15.50;8.68;;;;;;;-0.73;100.00;96504.16;1027699;28;20022;-56
2021/03/18 01:55:42;;;;;;;17.42;9.32;;;;;;;-0.77;100.00;96506.13;1031563;28;20479;-56
2021/03/18 01:56:13;;;;;;;17.10;9.52;;;;;;;-0.80;100.00;96505.44;1027829;28;20022;-56
2021/03/18 01:56:44;;;;;;;21.17;9.55;;;;;;;-0.73;100.00;96504.16;1023715;29;20019;-55
2021/03/18 01:57:15;;;;;;;18.13;10.15;;;;;;;-0.68;100.00;96501.25;1019712;28;20537;-56
2021/03/18 01:57:47;;;;;;;15.50;9.00;;;;;;;-0.71;100.00;96502.28;1027613;28;20030;-56
2021/03/18 01:58:18;;;;;;;15.27;8.35;;;;;;;-0.68;100.00;96507.34;1027847;28;20476;-55
2021/03/18 01:58:48;;;;;;;16.98;8.57;;;;;;;-0.64;100.00;96508.81;1031678;28;20018;-56
2021/03/18 01:59:19;;;;;;;20.02;9.25;;;;;;;-0.62;100.00;96500.91;1031736;28;20014;-56
2021/03/18 01:59:52;;;;;;;18.98;8.60;;;;;;;-0.61;100.00;96502.56;1027614;28;20019;-57
2021/03/18 02:00:24;;;;;;;15.73;8.77;;;;;;;-0.57;100.00;96499.69;1027674;28;20023;-56
2021/03/18 02:00:58;;;;;;;17.33;8.48;;;;;;;-0.58;100.00;96500.59;1031678;28;20029;-56
2021/03/18 02:01:28;;;;;;;17.92;9.38;;;;;;;-0.63;100.00;96510.50;1023706;28;20544;-57
2021/03/18 02:01:59;;;;;;;18.13;9.55;;;;;;;-0.68;100.00;96502.13;1039625;28;20101;-59
2021/03/18 02:02:30;;;;;;;20.15;9.15;;;;;;;-0.62;100.00;96501.72;1027710;28;20109;-58
2021/03/18 02:03:01;;;;;;;19.02;9.35;;;;;;;-0.59;100.00;96506.75;1027697;28;20085;-56
2021/03/18 02:03:32;;;;;;;16.63;8.82;;;;;;;-0.58;100.00;96503.22;1035631;28;20360;-54
2021/03/18 02:04:03;;;;;;;17.98;8.98;;;;;;;-0.59;100.00;96501.56;1027550;28;20038;-56
2021/03/18 02:04:34;;;;;;;17.13;8.57;;;;;;;-0.55;100.00;96503.97;1035775;28;20360;-55
2021/03/18 02:05:06;;;;;;;16.63;8.75;;;;;;;-0.51;100.00;96502.84;1031696;28;20117;-56
2021/03/18 02:05:36;;;;;;;18.15;9.15;;;;;;;-0.52;100.00;96502.03;1035738;28;20396;-56
2021/03/18 02:06:07;;;;;;;17.85;9.38;;;;;;;-0.49;100.00;96508.81;1027498;28;20023;-55
2021/03/18 02:06:38;;;;;;;19.70;9.55;;;;;;;-0.59;100.00;96509.38;1031720;28;20496;-54
2021/03/18 02:07:09;;;;;;;15.40;8.55;;;;;;;-0.61;100.00;96508.63;1027556;28;20034;-56
2021/03/18 02:07:40;;;;;;;16.67;8.35;;;;;;;-0.57;100.00;96504.91;1027681;28;20104;-55
2021/03/18 02:08:11;;;;;;;17.75;8.77;;;;;;;-0.59;100.00;96500.72;1027573;28;20061;-55
2021/03/18 02:08:42;;;;;;;19.38;9.10;;;;;;;-0.61;100.00;96513.00;1027716;28;20019;-56
2021/03/18 02:09:12;;;;;;;22.13;10.50;;;;;;;-0.60;100.00;96505.06;1031644;28;20022;-56
2021/03/18 02:09:43;;;;;;;17.48;8.93;;;;;;;-0.63;100.00;96510.50;1027736;28;20468;-56
2021/03/18 02:10:14;;;;;;;17.05;9.10;;;;;;;-0.63;100.00;96507.03;1031613;28;20077;-56
2021/03/18 02:10:45;;;;;;;17.50;9.23;;;;;;;-0.59;100.00;96509.38;1027682;28;20065;-56
2021/03/18 02:11:16;;;;;;;19.42;9.20;;;;;;;-0.62;100.00;96506.94;1027653;28;20019;-56
2021/03/18 02:11:46;;;;;;;17.58;8.77;;;;;;;-0.63;100.00;96514.84;1035704;28;20054;-56
2021/03/18 02:12:17;;;;;;;21.85;9.40;;;;;;;-0.65;100.00;96511.50;1023579;28;20413;-55
2021/03/18 02:12:48;;;;;;;17.55;9.38;;;;;;;-0.82;100.00;96509.91;1023635;29;20118;-56
2021/03/18 02:13:19;;;;;;;20.58;10.10;;;;;;;-0.81;100.00;96509.00;1027579;28;20014;-56
2021/03/18 02:13:50;;;;;;;18.75;9.65;;;;;;;-0.77;100.00;96513.09;1027480;28;20519;-55
2021/03/18 02:14:21;;;;;;;29.38;11.50;;;;;;;-0.76;100.00;96512.16;1035640;28;20024;-56
2021/03/18 02:14:52;;;;;;;19.25;9.77;;;;;;;-0.81;100.00;96504.59;1031814;28;20052;-56
2021/03/18 02:15:25;;;;;;;17.08;10.13;;;;;;;-0.81;100.00;96511.59;1019749;29;20023;-56
2021/03/18 02:15:58;;;;;;;17.15;9.23;;;;;;;-0.85;100.00;96507.50;1027857;28;20047;-57
2021/03/18 02:16:31;;;;;;;19.83;9.27;;;;;;;-0.82;100.00;96509.91;1023566;28;20170;-54
2021/03/18 02:17:02;;;;;;;19.30;9.85;;;;;;;-0.79;100.00;96504.53;1031648;28;20025;-55
2021/03/18 02:17:44;;;;;;;18.02;9.82;;;;;;;-0.84;100.00;96512.59;1031744;28;20045;-57
2021/03/18 02:18:34;;;;;;;20.50;10.52;;;;;;;-0.82;100.00;96512.50;1031642;28;20599;-56
2021/03/18 02:19:24;;;;;;;19.30;9.80;;;;;;;-0.88;100.00;96515.50;1019831;29;20055;-54
2021/03/18 02:20:02;;;;;;;20.75;9.85;;;;;;;-1.04;100.00;96510.38;1030231;28;20505;-55
2021/03/18 02:20:50;;;;;;;22.25;9.77;;;;;;;-1.02;100.00;96514.53;1028740;28;20015;-56
2021/03/18 02:21:38;;;;;;;17.67;9.50;;;;;;;-1.01;100.00;96513.63;1023581;28;20267;-54
2021/03/18 02:22:25;;;;;;;19.73;10.18;;;;;;;-1.00;100.00;96515.28;1035801;28;20403;-56
2021/03/18 02:23:16;;;;;;;22.70;10.68;;;;;;;-1.05;100.00;96514.72;1036928;28;20014;-55
2021/03/18 02:24:07;;;;;;;23.80;10.40;;;;;;;-1.02;100.00;96516.31;1037473;28;20494;-55
2021/03/18 02:24:43;;;;;;;18.40;10.05;;;;;;;-0.99;100.00;96513.53;1035950;28;20014;-53
2021/03/18 02:25:16;;;;;;;23.73;10.40;;;;;;;-0.99;100.00;96511.75;1032084;28;20014;-54
2021/03/18 02:25:58;;;;;;;19.50;9.02;;;;;;;-1.00;100.00;96517.91;1017349;29;20012;-55
2021/03/18 02:26:38;;;;;;;20.35;9.75;;;;;;;-0.95;100.00;96513.25;1022867;29;20034;-55